x

South Santa Rosa Is. Ca (46069) Wave Buoy

4:50am - Wed 23rd Apr 2014 All times are PDT. -7 hours from GMT.

  • Sig Wave height 12.5ft
  • Peak Period 9s
  • Average Period 7s
  • Wind
    31mph, 40mph gusts
  • Sea Temp 56°f
  • Air Temp 55°f
  • Sea Pressure 1014.1mb
  • South Santa Rosa Is. Ca
  • South Santa Rosa Is. Ca

More Historic Weather Station data

Upgrade to MSW Pro to gain access to the past 30 days of data for over 8000 Wavebouys and Weather Stations around the globe.

Join Pro

Comparision Forecast

View Surf forecast
   
Wed 04/23 4:50am 12.5ft 9s 7s 31 40 mph 1014.1mb 56f 55f
3:50am 12ft 12s 7s 29 36 mph 1014.4mb 57f 55f
2:50am 12.5ft 9s 7s 34 40 mph 1014.7mb 57f 55f
1:50am 12ft 8s 7s 34 40 mph 1015mb 57f 55f
12:50am 12ft 9s 7s 31 38 mph 1015.1mb 57f 55f
Tue 04/22 11:50pm 12.5ft 8s 7s 34 40 mph 1015.2mb 57f 56f
10:50pm 13ft 8s 7s 31 38 mph 1015.1mb 57f 56f
9:50pm 12.5ft 8s 7s 31 40 mph 1015mb 57f 56f
8:50pm 12ft 9s 6s 34 38 mph 1015.1mb 57f 56f
7:50pm 13.5ft 9s 7s 34 40 mph 1014.5mb 57f 56f
6:50pm 13ft 13s 7s 31 40 mph 1014.4mb 57f 56f
5:50pm 11.5ft 8s 6s 31 38 mph 1014.4mb 57f 56f
4:50pm 12ft 14s 7s 31 38 mph 1014.5mb 57f 56f
3:50pm 11.5ft 13s 6s 27 31 mph 1014.9mb 57f 56f
2:50pm 11.5ft 13s 7s 29 36 mph 1014.9mb 57f 56f
1:50pm 11ft 14s 6s 29 36 mph 1015.7mb 57f 56f
12:50pm 10.5ft 13s 6s 29 36 mph 1016.4mb 57f 56f
11:50am 10ft 12s 6s 31 38 mph 1016.5mb 58f 56f
10:50am 9ft 14s 6s 29 34 mph 1016.9mb 58f 55f
9:50am 8.5ft 14s 6s 31 36 mph 1016.5mb 58f 55f
8:50am 8.5ft 13s 7s 27 34 mph 1016.3mb 58f 56f
7:50am 8.5ft 14s 7s 22 27 mph 1016.3mb 58f 57f
6:50am 8ft 13s 6s 22 29 mph 1015.7mb 58f 57f
5:50am 9ft 14s 6s 29 36 mph 1015mb 58f 56f
4:50am 9.5ft 13s 7s 27 34 mph 1014.8mb 58f 56f
3:50am 8ft 13s 6s 27 31 mph 1014.7mb 58f 56f
2:50am 9ft 13s 7s 25 29 mph 1014.7mb 58f 56f
1:50am 9.5ft 14s 8s 25 29 mph 1014.7mb 58f 57f
12:50am 9ft 13s 7s 25 29 mph 1014.9mb 59f 57f
Mon 04/21 11:50pm 9.5ft 14s 8s 22 27 mph 1015.1mb 59f 58f
10:50pm 9ft 14s 8s 18 22 mph 1015.2mb 59f 58f
9:50pm 10.5ft 14s 8s 22 27 mph 1015.5mb 59f 57f
8:50pm 9ft 14s 7s 25 29 mph 1015.3mb 59f 58f
7:50pm 9ft 14s 8s 22 27 mph 1015.2mb 60f 58f
6:50pm 11ft 14s 10s 11 16 mph 1014.8mb 60f 57f
5:50pm 10.5ft 15s 11s 16 18 mph 1015.1mb 61f 57f
4:50pm 9.5ft 14s 10s 11 16 mph 1015.6mb 62f 60f
3:50pm 12.5ft 15s 11s 2 7 mph 1015.7mb 61f 59f
2:50pm 11ft 15s 11s 4
mph
1016.6mb 60f 58f
1:50pm 10.5ft 14s 10s 2 7 mph 1017.3mb 59f 58f
12:50pm 11ft 15s 11s 7 11 mph 1017.7mb 59f 58f
11:50am 11.5ft 15s 10s 9 11 mph 1018mb 59f 58f
10:50am 12ft 15s 11s 11 16 mph 1017.7mb 58f 58f
9:50am 12ft 15s 11s 11 13 mph 1017.2mb 58f 58f
8:50am 12ft 15s 11s 9 11 mph 1016.8mb 58f 58f
7:50am 11ft 15s 11s 7 9 mph 1016.8mb 58f 58f
6:50am 11ft 16s 11s 7 9 mph 1016.2mb 58f 57f
5:50am 11ft 14s 11s 4 9 mph 1016.1mb 58f 57f
4:50am 10.5ft 15s 10s 7 9 mph 1015.8mb 58f 57f
3:50am 12ft 15s 11s 13 18 mph 1016.1mb 58f 57f
2:50am 12ft 15s 10s 16 18 mph 1016mb 58f 57f
1:50am 11ft 15s 10s 18 20 mph 1016.5mb 58f 57f
12:50am 10ft 16s 10s 16 20 mph 1017mb 58f 58f
Sun 04/20 11:50pm 11ft 15s 11s 13 16 mph 1017.1mb 58f 58f
10:50pm 13.5ft 16s 12s 18 20 mph 1017.3mb 58f 58f
9:50pm 11ft 16s 11s 13 18 mph 1017.4mb 58f 58f
8:50pm 10ft 16s 10s 13 18 mph 1017mb 58f 58f
7:50pm 9ft 16s 9s 16 20 mph 1017mb 59f 57f
6:50pm 7ft 16s 8s 16 20 mph 1017mb 59f 58f
5:50pm 7ft 17s 9s 13 18 mph 1017.2mb 59f 58f
3:50pm 6ft 17s 7s 11 13 mph 1017.4mb 59f 55f
2:50pm 5ft 16s 6s 11 13 mph 1017.7mb 58f 55f
1:50pm 5ft 14s 6s 16 18 mph 1018.3mb 58f 55f
12:50pm 6ft 13s 7s 16 18 mph 1018.7mb 58f 54f
11:50am 5ft 13s 6s 11 13 mph 1019mb 58f 55f
10:50am 6ft 14s 7s 11 13 mph 1019mb 58f 55f
9:50am 6.5ft 13s 7s 9 11 mph 1018.4mb 57f 54f
8:50am 7ft 13s 7s 11 13 mph 1018.3mb 57f 54f
7:50am 6.5ft 14s 7s 11 13 mph 1017.9mb 57f 54f
6:50am 7ft 8s 6s 16 18 mph 1017.2mb 57f 53f
5:50am 7ft 8s 6s 16 20 mph 1016.8mb 57f 53f
4:50am 8ft 8s 6s 18 20 mph 1016.7mb 57f 53f
3:50am 8ft 8s 6s 20 25 mph 1016.6mb 57f 54f
2:50am 8.5ft 8s 6s 20 22 mph 1017.1mb 57f 54f
1:50am 9ft 8s 6s 27 31 mph 1016.6mb 58f 55f
12:50am 9ft 7s 6s 29 34 mph 1016.5mb 58f 55f
Sat 04/19 11:50pm 8ft 6s 5s 27 34 mph 1016.4mb 58f 56f
10:50pm 8ft 7s 5s 29 34 mph 1016.5mb 58f 56f
9:50pm 8ft 6s 6s 29 36 mph 1016.5mb 58f 56f
8:50pm 7ft 7s 5s 27 34 mph 1016.3mb 58f 57f
7:50pm 8ft 11s 6s 31 36 mph 1015.6mb 58f 57f
6:50pm 7ft 8s 5s 25 29 mph 1016mb 58f 57f
5:50pm 7ft 14s 5s 25 29 mph 1016.1mb 58f 57f
4:50pm 6.5ft 11s 5s 22 27 mph 1016.4mb 58f 57f
3:50pm 6.5ft 15s 5s 25 27 mph 1016.5mb 58f 57f
2:50pm 6ft 15s 6s 22 27 mph 1016.7mb 58f 56f
1:50pm 6.5ft 11s 6s 22 27 mph 1016.7mb 58f 56f
12:50pm 6ft 11s 6s 20 25 mph 1017.1mb 58f 56f